Elberon, Virginia
Current Conditions -  °F | °C
As of 9:54 AM on Friday 31 Oct 2014 (Local Time) from KAKQ Reporting Station
Clear Clear  
Wind Chill: 50°   Ceiling: Unl
Heat Index: 50°   Visibility: 10mi
Dew Point: 45°   Wind: 3mph
Humidity: 83%   Direction: 10°N
Pressure: 29.95"   Gusts: NA
Location:  37.06°N, 76.84°W
Report Text: KAKQ 311354Z AUTO 01003KT 10SM CLR 10/07 A2995 RMK AO2 SLP144 T01000072 TSNO
Loading
Personal Weather Stations






























Interactive Weather Map
Tropical Storm Tracking
New forecast layout! Learn more

10-Day Weather Forecast

Advertisements
Track Severe Weather on mobile